sensor_id;sensor_type;location;lat;lon;timestamp;P1;durP1;ratioP1;P2;durP2;ratioP2
3645;SDS011;1839;48.060;11.662;2022-08-04T05:01:27;14.80;;;6.10;;
3645;SDS011;1839;48.060;11.662;2022-08-04T05:06:50;14.83;;;5.40;;
3645;SDS011;1839;48.060;11.662;2022-08-04T05:09:22;13.70;;;4.50;;
3645;SDS011;1839;48.060;11.662;2022-08-04T05:11:52;20.13;;;6.00;;
3645;SDS011;1839;48.060;11.662;2022-08-04T05:14:23;15.33;;;3.67;;
3645;SDS011;1839;48.060;11.662;2022-08-04T05:16:55;12.37;;;3.83;;
3645;SDS011;1839;48.060;11.662;2022-08-04T05:19:27;11.97;;;3.23;;
3645;SDS011;1839;48.060;11.662;2022-08-04T05:21:59;13.67;;;3.50;;
3645;SDS011;1839;48.060;11.662;2022-08-04T05:24:27;13.80;;;3.40;;
3645;SDS011;1839;48.060;11.662;2022-08-04T05:26:55;12.80;;;3.17;;
3645;SDS011;1839;48.060;11.662;2022-08-04T05:29:25;12.00;;;2.70;;
3645;SDS011;1839;48.060;11.662;2022-08-04T05:31:54;14.10;;;3.70;;
3645;SDS011;1839;48.060;11.662;2022-08-04T05:34:25;12.80;;;3.17;;
3645;SDS011;1839;48.060;11.662;2022-08-04T05:36:54;13.90;;;3.67;;
3645;SDS011;1839;48.060;11.662;2022-08-04T05:39:23;11.37;;;2.60;;
3645;SDS011;1839;48.060;11.662;2022-08-04T05:41:50;11.37;;;3.17;;
3645;SDS011;1839;48.060;11.662;2022-08-04T05:44:19;13.33;;;3.80;;
3645;SDS011;1839;48.060;11.662;2022-08-04T05:46:48;15.30;;;3.70;;
3645;SDS011;1839;48.060;11.662;2022-08-04T05:49:18;23.60;;;4.23;;
3645;SDS011;1839;48.060;11.662;2022-08-04T05:51:45;13.30;;;3.33;;
3645;SDS011;1839;48.060;11.662;2022-08-04T05:54:13;11.40;;;2.80;;
3645;SDS011;1839;48.060;11.662;2022-08-04T05:56:41;11.47;;;3.17;;
3645;SDS011;1839;48.060;11.662;2022-08-04T05:59:09;14.23;;;3.50;;
3645;SDS011;1839;48.060;11.662;2022-08-04T06:01:37;16.73;;;3.47;;
3645;SDS011;1839;48.060;11.662;2022-08-04T06:04:04;14.30;;;3.90;;
3645;SDS011;1839;48.060;11.662;2022-08-04T06:06:33;16.03;;;3.50;;
3645;SDS011;1839;48.060;11.662;2022-08-04T06:09:01;14.37;;;3.70;;
3645;SDS011;1839;48.060;11.662;2022-08-04T06:11:28;10.07;;;3.17;;
3645;SDS011;1839;48.060;11.662;2022-08-04T06:13:57;14.00;;;3.73;;
3645;SDS011;1839;48.060;11.662;2022-08-04T06:16:26;27.63;;;3.67;;
3645;SDS011;1839;48.060;11.662;2022-08-04T06:18:54;10.10;;;2.73;;
3645;SDS011;1839;48.060;11.662;2022-08-04T06:21:23;13.20;;;3.77;;
3645;SDS011;1839;48.060;11.662;2022-08-04T06:23:54;11.03;;;3.73;;
3645;SDS011;1839;48.060;11.662;2022-08-04T06:26:21;12.97;;;3.90;;
3645;SDS011;1839;48.060;11.662;2022-08-04T06:28:50;12.00;;;3.97;;
3645;SDS011;1839;48.060;11.662;2022-08-04T06:31:18;11.40;;;3.80;;
3645;SDS011;1839;48.060;11.662;2022-08-04T06:33:57;11.53;;;3.80;;
3645;SDS011;1839;48.060;11.662;2022-08-04T06:36:25;10.20;;;3.17;;
3645;SDS011;1839;48.060;11.662;2022-08-04T06:38:54;11.23;;;3.47;;
3645;SDS011;1839;48.060;11.662;2022-08-04T06:41:21;11.50;;;3.90;;
3645;SDS011;1839;48.060;11.662;2022-08-04T06:43:49;10.83;;;3.50;;
3645;SDS011;1839;48.060;11.662;2022-08-04T06:46:17;10.40;;;3.20;;
3645;SDS011;1839;48.060;11.662;2022-08-04T06:48:44;11.73;;;3.47;;
3645;SDS011;1839;48.060;11.662;2022-08-04T06:51:12;11.83;;;4.30;;
3645;SDS011;1839;48.060;11.662;2022-08-04T06:53:40;10.73;;;4.03;;
3645;SDS011;1839;48.060;11.662;2022-08-04T06:56:08;12.50;;;3.60;;
3645;SDS011;1839;48.060;11.662;2022-08-04T06:58:37;10.43;;;3.53;;
3645;SDS011;1839;48.060;11.662;2022-08-04T07:01:05;12.53;;;3.63;;
3645;SDS011;1839;48.060;11.662;2022-08-04T07:03:32;12.23;;;3.40;;
3645;SDS011;1839;48.060;11.662;2022-08-04T07:06:00;18.70;;;3.63;;
3645;SDS011;1839;48.060;11.662;2022-08-04T07:08:28;11.97;;;3.63;;
3645;SDS011;1839;48.060;11.662;2022-08-04T07:10:56;11.80;;;3.67;;
3645;SDS011;1839;48.060;11.662;2022-08-04T07:13:24;9.70;;;3.03;;
3645;SDS011;1839;48.060;11.662;2022-08-04T07:15:52;10.37;;;3.60;;
3645;SDS011;1839;48.060;11.662;2022-08-04T07:18:21;11.03;;;3.50;;
3645;SDS011;1839;48.060;11.662;2022-08-04T07:20:48;8.67;;;3.10;;
3645;SDS011;1839;48.060;11.662;2022-08-04T07:23:15;9.20;;;3.10;;
3645;SDS011;1839;48.060;11.662;2022-08-04T07:25:48;10.60;;;4.20;;
3645;SDS011;1839;48.060;11.662;2022-08-04T07:28:17;13.50;;;3.17;;
3645;SDS011;1839;48.060;11.662;2022-08-04T07:30:46;8.33;;;3.10;;
3645;SDS011;1839;48.060;11.662;2022-08-04T07:33:13;13.93;;;3.20;;
3645;SDS011;1839;48.060;11.662;2022-08-04T07:35:40;8.20;;;2.90;;
3645;SDS011;1839;48.060;11.662;2022-08-04T07:38:08;11.93;;;3.03;;
3645;SDS011;1839;48.060;11.662;2022-08-04T07:40:36;8.27;;;2.90;;
3645;SDS011;1839;48.060;11.662;2022-08-04T07:43:03;11.03;;;3.10;;
3645;SDS011;1839;48.060;11.662;2022-08-04T07:45:31;9.67;;;3.83;;
3645;SDS011;1839;48.060;11.662;2022-08-04T07:48:00;8.80;;;3.37;;
3645;SDS011;1839;48.060;11.662;2022-08-04T07:50:28;10.27;;;3.30;;
3645;SDS011;1839;48.060;11.662;2022-08-04T07:52:55;16.67;;;3.10;;
3645;SDS011;1839;48.060;11.662;2022-08-04T07:55:23;8.80;;;2.60;;
3645;SDS011;1839;48.060;11.662;2022-08-04T07:57:51;13.43;;;3.43;;
3645;SDS011;1839;48.060;11.662;2022-08-04T08:00:18;9.90;;;3.37;;
3645;SDS011;1839;48.060;11.662;2022-08-04T08:02:47;10.70;;;3.23;;
3645;SDS011;1839;48.060;11.662;2022-08-04T08:05:17;17.77;;;3.97;;
3645;SDS011;1839;48.060;11.662;2022-08-04T08:07:44;7.80;;;2.73;;
3645;SDS011;1839;48.060;11.662;2022-08-04T08:10:12;10.50;;;3.60;;
3645;SDS011;1839;48.060;11.662;2022-08-04T08:12:40;12.07;;;3.30;;
3645;SDS011;1839;48.060;11.662;2022-08-04T08:15:07;12.90;;;3.30;;
3645;SDS011;1839;48.060;11.662;2022-08-04T08:17:36;15.93;;;3.13;;
3645;SDS011;1839;48.060;11.662;2022-08-04T08:20:05;8.63;;;3.57;;
3645;SDS011;1839;48.060;11.662;2022-08-04T08:22:34;8.43;;;3.50;;
3645;SDS011;1839;48.060;11.662;2022-08-04T08:25:02;8.90;;;3.37;;
3645;SDS011;1839;48.060;11.662;2022-08-04T08:27:29;7.90;;;3.60;;
3645;SDS011;1839;48.060;11.662;2022-08-04T08:29:57;12.50;;;3.90;;
3645;SDS011;1839;48.060;11.662;2022-08-04T08:32:24;13.90;;;3.73;;
3645;SDS011;1839;48.060;11.662;2022-08-04T08:34:51;8.90;;;3.10;;
3645;SDS011;1839;48.060;11.662;2022-08-04T08:37:20;7.40;;;3.00;;
3645;SDS011;1839;48.060;11.662;2022-08-04T08:39:52;14.63;;;3.20;;
3645;SDS011;1839;48.060;11.662;2022-08-04T08:42:30;11.10;;;3.03;;
3645;SDS011;1839;48.060;11.662;2022-08-04T08:50:38;9.73;;;3.10;;
3645;SDS011;1839;48.060;11.662;2022-08-04T08:53:15;9.30;;;3.50;;
3645;SDS011;1839;48.060;11.662;2022-08-04T08:55:51;7.70;;;3.03;;
3645;SDS011;1839;48.060;11.662;2022-08-04T09:01:15;10.20;;;3.40;;
3645;SDS011;1839;48.060;11.662;2022-08-04T09:04:00;9.70;;;3.63;;
3645;SDS011;1839;48.060;11.662;2022-08-04T09:06:42;15.57;;;6.40;;
3645;SDS011;1839;48.060;11.662;2022-08-04T09:09:18;14.50;;;4.03;;
3645;SDS011;1839;48.060;11.662;2022-08-04T09:11:57;9.20;;;3.80;;
3645;SDS011;1839;48.060;11.662;2022-08-04T09:14:28;8.77;;;4.03;;
3645;SDS011;1839;48.060;11.662;2022-08-04T09:16:59;7.50;;;2.83;;
3645;SDS011;1839;48.060;11.662;2022-08-04T09:19:28;13.80;;;6.72;;
3645;SDS011;1839;48.060;11.662;2022-08-04T09:22:00;10.75;;;4.32;;
3645;SDS011;1839;48.060;11.662;2022-08-04T09:24:28;7.75;;;3.33;;
3645;SDS011;1839;48.060;11.662;2022-08-04T09:27:02;8.75;;;2.85;;
3645;SDS011;1839;48.060;11.662;2022-08-04T09:29:33;8.25;;;3.45;;
3645;SDS011;1839;48.060;11.662;2022-08-04T09:32:03;10.40;;;4.38;;
3645;SDS011;1839;48.060;11.662;2022-08-04T09:34:35;17.27;;;5.47;;
3645;SDS011;1839;48.060;11.662;2022-08-04T09:37:06;17.42;;;5.88;;
3645;SDS011;1839;48.060;11.662;2022-08-04T09:39:39;8.52;;;4.38;;
3645;SDS011;1839;48.060;11.662;2022-08-04T09:42:11;7.72;;;3.13;;
3645;SDS011;1839;48.060;11.662;2022-08-04T09:44:47;8.00;;;2.30;;
3645;SDS011;1839;48.060;11.662;2022-08-04T09:47:19;5.88;;;2.03;;
3645;SDS011;1839;48.060;11.662;2022-08-04T09:49:52;7.43;;;2.50;;
3645;SDS011;1839;48.060;11.662;2022-08-04T09:52:26;8.05;;;2.15;;
3645;SDS011;1839;48.060;11.662;2022-08-04T09:54:58;7.38;;;2.75;;
3645;SDS011;1839;48.060;11.662;2022-08-04T09:57:35;5.88;;;1.70;;
3645;SDS011;1839;48.060;11.662;2022-08-04T10:00:05;5.78;;;2.20;;
3645;SDS011;1839;48.060;11.662;2022-08-04T10:02:35;5.45;;;2.03;;
3645;SDS011;1839;48.060;11.662;2022-08-04T10:05:03;6.18;;;2.28;;
3645;SDS011;1839;48.060;11.662;2022-08-04T10:10:18;5.93;;;2.50;;
3645;SDS011;1839;48.060;11.662;2022-08-04T10:13:06;5.93;;;2.40;;
3645;SDS011;1839;48.060;11.662;2022-08-04T10:15:39;6.03;;;2.42;;
3645;SDS011;1839;48.060;11.662;2022-08-04T10:18:10;6.20;;;2.47;;
3645;SDS011;1839;48.060;11.662;2022-08-04T10:20:45;6.63;;;2.72;;
3645;SDS011;1839;48.060;11.662;2022-08-04T10:23:17;7.80;;;2.17;;
3645;SDS011;1839;48.060;11.662;2022-08-04T10:25:48;5.70;;;2.30;;
3645;SDS011;1839;48.060;11.662;2022-08-04T10:28:21;8.45;;;3.80;;
3645;SDS011;1839;48.060;11.662;2022-08-04T10:30:50;10.45;;;3.22;;
3645;SDS011;1839;48.060;11.662;2022-08-04T10:33:22;8.30;;;2.55;;
3645;SDS011;1839;48.060;11.662;2022-08-04T10:35:51;8.05;;;3.72;;
3645;SDS011;1839;48.060;11.662;2022-08-04T10:38:21;6.70;;;2.63;;
3645;SDS011;1839;48.060;11.662;2022-08-04T10:40:53;6.97;;;3.10;;
3645;SDS011;1839;48.060;11.662;2022-08-04T10:43:28;5.20;;;1.88;;
3645;SDS011;1839;48.060;11.662;2022-08-04T10:45:58;11.13;;;5.07;;
3645;SDS011;1839;48.060;11.662;2022-08-04T10:48:29;9.73;;;2.58;;
3645;SDS011;1839;48.060;11.662;2022-08-04T10:51:01;11.02;;;2.80;;
3645;SDS011;1839;48.060;11.662;2022-08-04T10:53:30;22.95;;;4.22;;
3645;SDS011;1839;48.060;11.662;2022-08-04T10:56:00;8.65;;;2.85;;
3645;SDS011;1839;48.060;11.662;2022-08-04T10:58:32;8.95;;;2.47;;
3645;SDS011;1839;48.060;11.662;2022-08-04T11:01:00;6.93;;;2.42;;
3645;SDS011;1839;48.060;11.662;2022-08-04T11:03:30;7.05;;;2.00;;
3645;SDS011;1839;48.060;11.662;2022-08-04T11:06:00;6.18;;;2.00;;
3645;SDS011;1839;48.060;11.662;2022-08-04T11:08:29;8.40;;;2.40;;
3645;SDS011;1839;48.060;11.662;2022-08-04T11:11:00;7.90;;;2.10;;
3645;SDS011;1839;48.060;11.662;2022-08-04T11:13:31;4.63;;;1.70;;
3645;SDS011;1839;48.060;11.662;2022-08-04T11:16:01;5.28;;;2.10;;
3645;SDS011;1839;48.060;11.662;2022-08-04T11:18:32;5.18;;;2.08;;
3645;SDS011;1839;48.060;11.662;2022-08-04T11:21:02;5.32;;;1.80;;
3645;SDS011;1839;48.060;11.662;2022-08-04T11:23:34;8.60;;;2.50;;
3645;SDS011;1839;48.060;11.662;2022-08-04T11:26:04;5.35;;;2.00;;
3645;SDS011;1839;48.060;11.662;2022-08-04T11:28:38;7.10;;;1.98;;
3645;SDS011;1839;48.060;11.662;2022-08-04T11:31:10;5.00;;;1.67;;
3645;SDS011;1839;48.060;11.662;2022-08-04T11:33:40;4.70;;;2.03;;
3645;SDS011;1839;48.060;11.662;2022-08-04T11:36:13;22.50;;;2.42;;
3645;SDS011;1839;48.060;11.662;2022-08-04T11:38:43;12.73;;;2.50;;
3645;SDS011;1839;48.060;11.662;2022-08-04T11:41:15;38.63;;;4.13;;
3645;SDS011;1839;48.060;11.662;2022-08-04T11:43:48;15.48;;;2.20;;
3645;SDS011;1839;48.060;11.662;2022-08-04T11:46:18;5.20;;;1.90;;
3645;SDS011;1839;48.060;11.662;2022-08-04T11:48:49;4.32;;;2.10;;
3645;SDS011;1839;48.060;11.662;2022-08-04T11:51:18;8.43;;;1.65;;
3645;SDS011;1839;48.060;11.662;2022-08-04T11:53:47;6.35;;;1.90;;
3645;SDS011;1839;48.060;11.662;2022-08-04T11:56:14;3.22;;;1.48;;
3645;SDS011;1839;48.060;11.662;2022-08-04T11:58:42;3.80;;;1.70;;
3645;SDS011;1839;48.060;11.662;2022-08-04T12:01:14;4.43;;;1.63;;
3645;SDS011;1839;48.060;11.662;2022-08-04T12:03:45;3.53;;;1.63;;
3645;SDS011;1839;48.060;11.662;2022-08-04T12:06:17;5.47;;;1.33;;
3645;SDS011;1839;48.060;11.662;2022-08-04T12:08:50;3.63;;;1.30;;
3645;SDS011;1839;48.060;11.662;2022-08-04T12:11:21;3.05;;;1.20;;
3645;SDS011;1839;48.060;11.662;2022-08-04T12:13:53;5.63;;;1.70;;
3645;SDS011;1839;48.060;11.662;2022-08-04T12:16:26;4.32;;;2.17;;
3645;SDS011;1839;48.060;11.662;2022-08-04T12:18:56;5.30;;;1.50;;
3645;SDS011;1839;48.060;11.662;2022-08-04T12:21:27;2.65;;;1.20;;
3645;SDS011;1839;48.060;11.662;2022-08-04T12:23:56;4.97;;;1.92;;
3645;SDS011;1839;48.060;11.662;2022-08-04T12:26:26;4.25;;;1.65;;
3645;SDS011;1839;48.060;11.662;2022-08-04T12:28:57;3.22;;;1.40;;
3645;SDS011;1839;48.060;11.662;2022-08-04T12:31:26;5.75;;;2.42;;
3645;SDS011;1839;48.060;11.662;2022-08-04T12:33:57;3.70;;;1.58;;
3645;SDS011;1839;48.060;11.662;2022-08-04T12:36:26;12.38;;;2.22;;
3645;SDS011;1839;48.060;11.662;2022-08-04T12:38:57;3.47;;;1.23;;
3645;SDS011;1839;48.060;11.662;2022-08-04T12:41:27;6.15;;;2.33;;
3645;SDS011;1839;48.060;11.662;2022-08-04T12:44:03;19.55;;;2.22;;
3645;SDS011;1839;48.060;11.662;2022-08-04T12:46:32;3.10;;;1.23;;
3645;SDS011;1839;48.060;11.662;2022-08-04T12:49:01;3.83;;;1.40;;
3645;SDS011;1839;48.060;11.662;2022-08-04T12:51:28;3.75;;;1.40;;
3645;SDS011;1839;48.060;11.662;2022-08-04T12:54:02;6.55;;;1.33;;
3645;SDS011;1839;48.060;11.662;2022-08-04T12:56:30;5.32;;;1.20;;
3645;SDS011;1839;48.060;11.662;2022-08-04T12:58:59;4.13;;;1.40;;
3645;SDS011;1839;48.060;11.662;2022-08-04T13:01:27;3.42;;;1.60;;
3645;SDS011;1839;48.060;11.662;2022-08-04T13:03:56;4.50;;;1.52;;
3645;SDS011;1839;48.060;11.662;2022-08-04T13:06:26;4.50;;;1.45;;
3645;SDS011;1839;48.060;11.662;2022-08-04T13:08:54;4.68;;;1.60;;
3645;SDS011;1839;48.060;11.662;2022-08-04T13:11:23;3.53;;;1.33;;
3645;SDS011;1839;48.060;11.662;2022-08-04T13:13:52;4.35;;;1.20;;
3645;SDS011;1839;48.060;11.662;2022-08-04T13:16:27;2.15;;;0.95;;
3645;SDS011;1839;48.060;11.662;2022-08-04T13:18:56;3.00;;;1.23;;
3645;SDS011;1839;48.060;11.662;2022-08-04T13:21:24;4.15;;;1.30;;
3645;SDS011;1839;48.060;11.662;2022-08-04T13:23:54;4.55;;;1.40;;
3645;SDS011;1839;48.060;11.662;2022-08-04T13:26:22;4.72;;;1.60;;
3645;SDS011;1839;48.060;11.662;2022-08-04T13:28:51;6.45;;;1.70;;
3645;SDS011;1839;48.060;11.662;2022-08-04T13:31:19;3.63;;;1.23;;
3645;SDS011;1839;48.060;11.662;2022-08-04T13:33:48;3.65;;;1.67;;
3645;SDS011;1839;48.060;11.662;2022-08-04T13:36:17;3.60;;;1.55;;
3645;SDS011;1839;48.060;11.662;2022-08-04T13:38:46;8.82;;;1.75;;
3645;SDS011;1839;48.060;11.662;2022-08-04T13:41:15;6.05;;;1.35;;
3645;SDS011;1839;48.060;11.662;2022-08-04T13:43:43;2.95;;;1.40;;
3645;SDS011;1839;48.060;11.662;2022-08-04T13:46:12;3.22;;;1.15;;
3645;SDS011;1839;48.060;11.662;2022-08-04T13:48:40;2.50;;;1.30;;
3645;SDS011;1839;48.060;11.662;2022-08-04T13:51:09;4.20;;;1.65;;
3645;SDS011;1839;48.060;11.662;2022-08-04T13:53:39;9.95;;;1.67;;
3645;SDS011;1839;48.060;11.662;2022-08-04T13:56:08;4.20;;;1.25;;
3645;SDS011;1839;48.060;11.662;2022-08-04T13:58:38;4.30;;;1.35;;
3645;SDS011;1839;48.060;11.662;2022-08-04T14:01:08;3.78;;;1.30;;
3645;SDS011;1839;48.060;11.662;2022-08-04T14:03:36;9.88;;;2.20;;
3645;SDS011;1839;48.060;11.662;2022-08-04T14:06:05;3.70;;;1.40;;
3645;SDS011;1839;48.060;11.662;2022-08-04T14:08:34;5.13;;;1.30;;
3645;SDS011;1839;48.060;11.662;2022-08-04T14:11:03;2.20;;;1.20;;
3645;SDS011;1839;48.060;11.662;2022-08-04T14:13:32;3.75;;;1.30;;
3645;SDS011;1839;48.060;11.662;2022-08-04T14:15:59;30.17;;;3.58;;
3645;SDS011;1839;48.060;11.662;2022-08-04T14:18:27;4.50;;;1.13;;
3645;SDS011;1839;48.060;11.662;2022-08-04T14:21:05;5.28;;;1.30;;
3645;SDS011;1839;48.060;11.662;2022-08-04T14:23:37;5.90;;;1.75;;
3645;SDS011;1839;48.060;11.662;2022-08-04T14:26:16;14.13;;;1.98;;
3645;SDS011;1839;48.060;11.662;2022-08-04T14:28:44;12.35;;;2.28;;
3645;SDS011;1839;48.060;11.662;2022-08-04T14:31:12;11.15;;;1.63;;
3645;SDS011;1839;48.060;11.662;2022-08-04T14:33:40;7.88;;;1.35;;
3645;SDS011;1839;48.060;11.662;2022-08-04T14:36:08;2.30;;;1.10;;
3645;SDS011;1839;48.060;11.662;2022-08-04T14:38:45;3.92;;;1.38;;
3645;SDS011;1839;48.060;11.662;2022-08-04T14:41:14;3.03;;;1.40;;
3645;SDS011;1839;48.060;11.662;2022-08-04T14:43:43;3.15;;;1.30;;
3645;SDS011;1839;48.060;11.662;2022-08-04T14:46:11;2.75;;;1.45;;
3645;SDS011;1839;48.060;11.662;2022-08-04T14:48:38;2.90;;;1.60;;
3645;SDS011;1839;48.060;11.662;2022-08-04T14:51:11;37.53;;;4.07;;
3645;SDS011;1839;48.060;11.662;2022-08-04T14:53:39;17.85;;;2.45;;
3645;SDS011;1839;48.060;11.662;2022-08-04T14:56:07;12.00;;;1.90;;
3645;SDS011;1839;48.060;11.662;2022-08-04T14:58:34;9.63;;;2.00;;
3645;SDS011;1839;48.060;11.662;2022-08-04T15:01:03;3.92;;;1.38;;
3645;SDS011;1839;48.060;11.662;2022-08-04T15:03:31;3.95;;;1.23;;
3645;SDS011;1839;48.060;11.662;2022-08-04T15:05:59;5.90;;;1.45;;
3645;SDS011;1839;48.060;11.662;2022-08-04T15:08:27;11.07;;;1.42;;
3645;SDS011;1839;48.060;11.662;2022-08-04T15:10:54;2.30;;;1.10;;
3645;SDS011;1839;48.060;11.662;2022-08-04T15:13:23;3.65;;;1.40;;
3645;SDS011;1839;48.060;11.662;2022-08-04T15:15:50;3.05;;;1.08;;
3645;SDS011;1839;48.060;11.662;2022-08-04T15:18:19;4.07;;;1.50;;
3645;SDS011;1839;48.060;11.662;2022-08-04T15:20:47;3.13;;;1.33;;
3645;SDS011;1839;48.060;11.662;2022-08-04T15:23:14;5.50;;;1.55;;
3645;SDS011;1839;48.060;11.662;2022-08-04T15:25:50;2.72;;;1.30;;
3645;SDS011;1839;48.060;11.662;2022-08-04T15:28:18;4.80;;;1.80;;
3645;SDS011;1839;48.060;11.662;2022-08-04T15:30:47;4.32;;;1.45;;
3645;SDS011;1839;48.060;11.662;2022-08-04T15:33:17;5.93;;;1.38;;
3645;SDS011;1839;48.060;11.662;2022-08-04T15:35:49;5.45;;;1.30;;
3645;SDS011;1839;48.060;11.662;2022-08-04T15:38:22;8.32;;;1.92;;
3645;SDS011;1839;48.060;11.662;2022-08-04T15:40:54;5.88;;;1.73;;
3645;SDS011;1839;48.060;11.662;2022-08-04T15:43:27;6.47;;;2.13;;
3645;SDS011;1839;48.060;11.662;2022-08-04T15:45:57;64.50;;;7.60;;
3645;SDS011;1839;48.060;11.662;2022-08-04T15:48:27;8.05;;;3.08;;
3645;SDS011;1839;48.060;11.662;2022-08-04T15:51:09;6.80;;;3.10;;
3645;SDS011;1839;48.060;11.662;2022-08-04T15:59:08;6.50;;;2.47;;
3645;SDS011;1839;48.060;11.662;2022-08-04T16:01:35;5.18;;;2.08;;
3645;SDS011;1839;48.060;11.662;2022-08-04T16:06:46;6.50;;;2.15;;
3645;SDS011;1839;48.060;11.662;2022-08-04T16:09:23;6.50;;;2.53;;
3645;SDS011;1839;48.060;11.662;2022-08-04T16:11:51;7.90;;;3.58;;
3645;SDS011;1839;48.060;11.662;2022-08-04T16:14:28;11.68;;;4.32;;
3645;SDS011;1839;48.060;11.662;2022-08-04T16:16:56;9.48;;;4.10;;
3645;SDS011;1839;48.060;11.662;2022-08-04T16:19:44;11.27;;;2.53;;
3645;SDS011;1839;48.060;11.662;2022-08-04T16:22:30;9.10;;;2.45;;
3645;SDS011;1839;48.060;11.662;2022-08-04T16:24:57;12.98;;;5.97;;
3645;SDS011;1839;48.060;11.662;2022-08-04T16:27:33;8.00;;;3.50;;
3645;SDS011;1839;48.060;11.662;2022-08-04T16:30:02;13.38;;;6.53;;
3645;SDS011;1839;48.060;11.662;2022-08-04T16:32:35;9.45;;;2.83;;
3645;SDS011;1839;48.060;11.662;2022-08-04T16:35:16;17.23;;;5.38;;
3645;SDS011;1839;48.060;11.662;2022-08-04T16:37:44;12.20;;;2.35;;
3645;SDS011;1839;48.060;11.662;2022-08-04T16:40:22;17.35;;;7.15;;
3645;SDS011;1839;48.060;11.662;2022-08-04T16:42:52;16.02;;;2.50;;
3645;SDS011;1839;48.060;11.662;2022-08-04T16:45:19;9.00;;;3.97;;
3645;SDS011;1839;48.060;11.662;2022-08-04T16:47:59;6.45;;;2.20;;
3645;SDS011;1839;48.060;11.662;2022-08-04T16:50:28;6.20;;;2.47;;
3645;SDS011;1839;48.060;11.662;2022-08-04T16:52:56;6.22;;;2.08;;
3645;SDS011;1839;48.060;11.662;2022-08-04T16:55:24;7.40;;;2.47;;
3645;SDS011;1839;48.060;11.662;2022-08-04T16:57:52;7.40;;;2.42;;
3645;SDS011;1839;48.060;11.662;2022-08-04T17:00:27;7.82;;;2.30;;
3645;SDS011;1839;48.060;11.662;2022-08-04T17:02:55;6.65;;;2.15;;
3645;SDS011;1839;48.060;11.662;2022-08-04T17:05:22;10.13;;;2.75;;
3645;SDS011;1839;48.060;11.662;2022-08-04T17:07:51;7.00;;;2.60;;
3645;SDS011;1839;48.060;11.662;2022-08-04T17:10:20;5.90;;;1.98;;
3645;SDS011;1839;48.060;11.662;2022-08-04T17:12:56;7.88;;;2.13;;
3645;SDS011;1839;48.060;11.662;2022-08-04T17:15:23;5.50;;;1.60;;
3645;SDS011;1839;48.060;11.662;2022-08-04T17:17:51;6.07;;;2.08;;
3645;SDS011;1839;48.060;11.662;2022-08-04T17:20:24;5.75;;;2.03;;
3645;SDS011;1839;48.060;11.662;2022-08-04T17:22:52;7.88;;;2.05;;
3645;SDS011;1839;48.060;11.662;2022-08-04T17:25:21;6.88;;;2.55;;
3645;SDS011;1839;48.060;11.662;2022-08-04T17:27:48;6.57;;;2.20;;
3645;SDS011;1839;48.060;11.662;2022-08-04T17:30:27;6.38;;;2.33;;
3645;SDS011;1839;48.060;11.662;2022-08-04T17:32:54;13.07;;;2.60;;
3645;SDS011;1839;48.060;11.662;2022-08-04T17:35:21;34.25;;;3.53;;
3645;SDS011;1839;48.060;11.662;2022-08-04T17:37:49;11.25;;;2.40;;
3645;SDS011;1839;48.060;11.662;2022-08-04T17:40:16;8.20;;;2.45;;
3645;SDS011;1839;48.060;11.662;2022-08-04T17:42:45;7.45;;;2.17;;
3645;SDS011;1839;48.060;11.662;2022-08-04T17:45:15;9.55;;;2.20;;
3645;SDS011;1839;48.060;11.662;2022-08-04T17:47:48;8.57;;;2.40;;
3645;SDS011;1839;48.060;11.662;2022-08-04T17:50:22;6.85;;;2.35;;
3645;SDS011;1839;48.060;11.662;2022-08-04T17:52:59;6.80;;;2.08;;
3645;SDS011;1839;48.060;11.662;2022-08-04T17:55:36;9.82;;;2.70;;
3645;SDS011;1839;48.060;11.662;2022-08-04T17:58:17;7.95;;;2.55;;
3645;SDS011;1839;48.060;11.662;2022-08-04T18:00:47;11.05;;;2.83;;
3645;SDS011;1839;48.060;11.662;2022-08-04T18:03:21;9.38;;;3.03;;
3645;SDS011;1839;48.060;11.662;2022-08-04T18:05:48;7.10;;;2.70;;
3645;SDS011;1839;48.060;11.662;2022-08-04T18:08:21;12.30;;;3.28;;
3645;SDS011;1839;48.060;11.662;2022-08-04T18:10:50;7.28;;;2.63;;
3645;SDS011;1839;48.060;11.662;2022-08-04T18:13:18;8.77;;;2.72;;
3645;SDS011;1839;48.060;11.662;2022-08-04T18:15:45;13.00;;;2.72;;
3645;SDS011;1839;48.060;11.662;2022-08-04T18:18:15;11.63;;;3.38;;
3645;SDS011;1839;48.060;11.662;2022-08-04T18:20:42;8.07;;;2.93;;
3645;SDS011;1839;48.060;11.662;2022-08-04T18:23:10;14.65;;;3.17;;
3645;SDS011;1839;48.060;11.662;2022-08-04T18:25:37;8.60;;;2.90;;
3645;SDS011;1839;48.060;11.662;2022-08-04T18:28:05;8.63;;;2.90;;
3645;SDS011;1839;48.060;11.662;2022-08-04T18:30:35;8.83;;;3.50;;
3645;SDS011;1839;48.060;11.662;2022-08-04T18:33:02;10.60;;;3.90;;
3645;SDS011;1839;48.060;11.662;2022-08-04T18:35:29;9.37;;;3.80;;
3645;SDS011;1839;48.060;11.662;2022-08-04T18:37:58;11.40;;;4.07;;
3645;SDS011;1839;48.060;11.662;2022-08-04T18:40:25;11.67;;;3.50;;
3645;SDS011;1839;48.060;11.662;2022-08-04T18:42:52;12.40;;;4.07;;
3645;SDS011;1839;48.060;11.662;2022-08-04T18:45:19;9.10;;;3.70;;
3645;SDS011;1839;48.060;11.662;2022-08-04T18:47:49;10.47;;;4.00;;
3645;SDS011;1839;48.060;11.662;2022-08-04T18:50:16;10.60;;;3.73;;
3645;SDS011;1839;48.060;11.662;2022-08-04T18:52:43;11.60;;;4.47;;
3645;SDS011;1839;48.060;11.662;2022-08-04T18:55:11;13.27;;;3.70;;
3645;SDS011;1839;48.060;11.662;2022-08-04T18:57:38;11.53;;;3.60;;
3645;SDS011;1839;48.060;11.662;2022-08-04T19:00:06;12.13;;;3.70;;
3645;SDS011;1839;48.060;11.662;2022-08-04T19:02:34;9.67;;;3.50;;
3645;SDS011;1839;48.060;11.662;2022-08-04T19:05:03;8.80;;;3.20;;
3645;SDS011;1839;48.060;11.662;2022-08-04T19:07:30;11.50;;;3.87;;
3645;SDS011;1839;48.060;11.662;2022-08-04T19:09:57;12.20;;;3.50;;
3645;SDS011;1839;48.060;11.662;2022-08-04T19:12:24;9.67;;;3.40;;
3645;SDS011;1839;48.060;11.662;2022-08-04T19:14:51;10.60;;;3.90;;
3645;SDS011;1839;48.060;11.662;2022-08-04T19:17:18;12.90;;;3.93;;
3645;SDS011;1839;48.060;11.662;2022-08-04T19:19:46;13.73;;;4.17;;
3645;SDS011;1839;48.060;11.662;2022-08-04T19:22:14;17.60;;;3.77;;
3645;SDS011;1839;48.060;11.662;2022-08-04T19:24:41;12.00;;;4.03;;
3645;SDS011;1839;48.060;11.662;2022-08-04T19:27:08;11.77;;;4.40;;
3645;SDS011;1839;48.060;11.662;2022-08-04T19:29:36;10.83;;;3.80;;
3645;SDS011;1839;48.060;11.662;2022-08-04T19:32:04;10.47;;;3.87;;
3645;SDS011;1839;48.060;11.662;2022-08-04T19:34:34;12.67;;;4.83;;
3645;SDS011;1839;48.060;11.662;2022-08-04T19:37:01;13.37;;;4.90;;
3645;SDS011;1839;48.060;11.662;2022-08-04T19:39:29;11.57;;;4.20;;
3645;SDS011;1839;48.060;11.662;2022-08-04T19:41:57;12.93;;;4.37;;
3645;SDS011;1839;48.060;11.662;2022-08-04T19:44:24;12.33;;;4.87;;
3645;SDS011;1839;48.060;11.662;2022-08-04T19:46:51;17.30;;;5.33;;
3645;SDS011;1839;48.060;11.662;2022-08-04T19:49:18;13.20;;;4.33;;
3645;SDS011;1839;48.060;11.662;2022-08-04T19:51:46;13.37;;;4.77;;
3645;SDS011;1839;48.060;11.662;2022-08-04T19:54:13;16.70;;;4.43;;
3645;SDS011;1839;48.060;11.662;2022-08-04T19:56:41;13.37;;;4.40;;
3645;SDS011;1839;48.060;11.662;2022-08-04T19:59:10;13.13;;;5.10;;
3645;SDS011;1839;48.060;11.662;2022-08-04T20:01:37;13.37;;;5.60;;
3645;SDS011;1839;48.060;11.662;2022-08-04T20:04:05;12.10;;;4.90;;
3645;SDS011;1839;48.060;11.662;2022-08-04T20:06:32;15.07;;;5.47;;
3645;SDS011;1839;48.060;11.662;2022-08-04T20:08:59;12.60;;;6.00;;
3645;SDS011;1839;48.060;11.662;2022-08-04T20:11:26;14.63;;;5.10;;
3645;SDS011;1839;48.060;11.662;2022-08-04T20:13:55;13.93;;;4.63;;
3645;SDS011;1839;48.060;11.662;2022-08-04T20:16:22;12.50;;;5.07;;
3645;SDS011;1839;48.060;11.662;2022-08-04T20:18:49;13.70;;;5.07;;
3645;SDS011;1839;48.060;11.662;2022-08-04T20:21:17;13.07;;;5.17;;
3645;SDS011;1839;48.060;11.662;2022-08-04T20:23:44;13.23;;;4.90;;
3645;SDS011;1839;48.060;11.662;2022-08-04T20:26:11;14.20;;;5.83;;
3645;SDS011;1839;48.060;11.662;2022-08-04T20:28:39;13.40;;;4.87;;
3645;SDS011;1839;48.060;11.662;2022-08-04T20:31:07;14.63;;;5.30;;
3645;SDS011;1839;48.060;11.662;2022-08-04T20:33:34;15.90;;;5.63;;